sensor_id;sensor_type;location;lat;lon;timestamp;P1;durP1;ratioP1;P2;durP2;ratioP2
13685;SDS011;6915;48.296;8.874;2023-03-01T00:01:51;20.90;;;14.27;;
13685;SDS011;6915;48.296;8.874;2023-03-01T00:04:20;21.80;;;14.20;;
13685;SDS011;6915;48.296;8.874;2023-03-01T00:06:49;21.03;;;13.60;;
13685;SDS011;6915;48.296;8.874;2023-03-01T00:09:18;21.60;;;14.23;;
13685;SDS011;6915;48.296;8.874;2023-03-01T00:11:46;19.07;;;13.30;;
13685;SDS011;6915;48.296;8.874;2023-03-01T00:14:15;19.17;;;13.37;;
13685;SDS011;6915;48.296;8.874;2023-03-01T00:16:46;20.50;;;13.30;;
13685;SDS011;6915;48.296;8.874;2023-03-01T00:19:15;22.27;;;14.07;;
13685;SDS011;6915;48.296;8.874;2023-03-01T00:21:47;20.43;;;13.67;;
13685;SDS011;6915;48.296;8.874;2023-03-01T00:24:18;23.03;;;13.93;;
13685;SDS011;6915;48.296;8.874;2023-03-01T00:26:47;21.03;;;13.67;;
13685;SDS011;6915;48.296;8.874;2023-03-01T00:29:20;21.87;;;14.33;;
13685;SDS011;6915;48.296;8.874;2023-03-01T00:31:51;25.43;;;15.87;;
13685;SDS011;6915;48.296;8.874;2023-03-01T00:34:20;23.57;;;14.97;;
13685;SDS011;6915;48.296;8.874;2023-03-01T00:36:49;24.47;;;14.93;;
13685;SDS011;6915;48.296;8.874;2023-03-01T00:39:18;23.50;;;15.40;;
13685;SDS011;6915;48.296;8.874;2023-03-01T00:41:47;24.23;;;14.87;;
13685;SDS011;6915;48.296;8.874;2023-03-01T00:44:15;21.93;;;14.47;;
13685;SDS011;6915;48.296;8.874;2023-03-01T00:46:44;22.07;;;14.63;;
13685;SDS011;6915;48.296;8.874;2023-03-01T00:49:14;21.13;;;14.13;;
13685;SDS011;6915;48.296;8.874;2023-03-01T00:51:43;24.23;;;15.80;;
13685;SDS011;6915;48.296;8.874;2023-03-01T00:54:11;24.97;;;15.57;;
13685;SDS011;6915;48.296;8.874;2023-03-01T00:56:40;23.07;;;15.37;;
13685;SDS011;6915;48.296;8.874;2023-03-01T00:59:09;24.43;;;15.87;;
13685;SDS011;6915;48.296;8.874;2023-03-01T01:01:38;23.10;;;16.07;;
13685;SDS011;6915;48.296;8.874;2023-03-01T01:04:08;24.03;;;14.87;;
13685;SDS011;6915;48.296;8.874;2023-03-01T01:06:41;25.47;;;16.77;;
13685;SDS011;6915;48.296;8.874;2023-03-01T01:09:11;23.73;;;16.00;;
13685;SDS011;6915;48.296;8.874;2023-03-01T01:11:43;24.37;;;15.33;;
13685;SDS011;6915;48.296;8.874;2023-03-01T01:14:13;23.70;;;15.57;;
13685;SDS011;6915;48.296;8.874;2023-03-01T01:16:43;25.13;;;15.60;;
13685;SDS011;6915;48.296;8.874;2023-03-01T01:19:11;25.77;;;15.70;;
13685;SDS011;6915;48.296;8.874;2023-03-01T01:21:42;25.33;;;15.73;;
13685;SDS011;6915;48.296;8.874;2023-03-01T01:24:11;25.00;;;15.13;;
13685;SDS011;6915;48.296;8.874;2023-03-01T01:26:41;25.47;;;16.40;;
13685;SDS011;6915;48.296;8.874;2023-03-01T01:29:11;23.90;;;15.30;;
13685;SDS011;6915;48.296;8.874;2023-03-01T01:31:41;25.87;;;15.40;;
13685;SDS011;6915;48.296;8.874;2023-03-01T01:34:13;27.73;;;17.23;;
13685;SDS011;6915;48.296;8.874;2023-03-01T01:36:47;33.20;;;20.63;;
13685;SDS011;6915;48.296;8.874;2023-03-01T01:39:18;25.80;;;16.33;;
13685;SDS011;6915;48.296;8.874;2023-03-01T01:41:47;26.70;;;16.27;;
13685;SDS011;6915;48.296;8.874;2023-03-01T01:44:17;25.97;;;16.47;;
13685;SDS011;6915;48.296;8.874;2023-03-01T01:46:49;25.23;;;17.03;;
13685;SDS011;6915;48.296;8.874;2023-03-01T01:49:27;26.97;;;16.40;;
13685;SDS011;6915;48.296;8.874;2023-03-01T01:52:01;26.27;;;17.33;;
13685;SDS011;6915;48.296;8.874;2023-03-01T01:54:36;27.73;;;16.87;;
13685;SDS011;6915;48.296;8.874;2023-03-01T01:57:09;26.40;;;17.07;;
13685;SDS011;6915;48.296;8.874;2023-03-01T01:59:39;25.30;;;16.93;;
13685;SDS011;6915;48.296;8.874;2023-03-01T02:02:12;29.40;;;18.00;;
13685;SDS011;6915;48.296;8.874;2023-03-01T02:04:42;28.37;;;17.50;;
13685;SDS011;6915;48.296;8.874;2023-03-01T02:07:15;29.07;;;18.23;;
13685;SDS011;6915;48.296;8.874;2023-03-01T02:09:46;29.50;;;18.17;;
13685;SDS011;6915;48.296;8.874;2023-03-01T02:12:16;26.50;;;18.03;;
13685;SDS011;6915;48.296;8.874;2023-03-01T02:14:48;32.27;;;19.13;;
13685;SDS011;6915;48.296;8.874;2023-03-01T02:17:17;32.90;;;18.13;;
13685;SDS011;6915;48.296;8.874;2023-03-01T02:19:50;28.37;;;18.23;;
13685;SDS011;6915;48.296;8.874;2023-03-01T02:22:34;29.37;;;18.83;;
13685;SDS011;6915;48.296;8.874;2023-03-01T02:25:07;30.13;;;19.10;;
13685;SDS011;6915;48.296;8.874;2023-03-01T02:27:46;28.23;;;18.07;;
13685;SDS011;6915;48.296;8.874;2023-03-01T02:30:22;29.10;;;18.70;;
13685;SDS011;6915;48.296;8.874;2023-03-01T02:32:53;28.50;;;18.70;;
13685;SDS011;6915;48.296;8.874;2023-03-01T02:38:01;30.40;;;19.40;;
13685;SDS011;6915;48.296;8.874;2023-03-01T02:40:32;33.77;;;20.40;;
13685;SDS011;6915;48.296;8.874;2023-03-01T02:43:02;33.23;;;21.37;;
13685;SDS011;6915;48.296;8.874;2023-03-01T02:45:35;30.27;;;19.63;;
13685;SDS011;6915;48.296;8.874;2023-03-01T02:48:09;27.40;;;18.60;;
13685;SDS011;6915;48.296;8.874;2023-03-01T02:50:45;26.70;;;19.03;;
13685;SDS011;6915;48.296;8.874;2023-03-01T02:53:23;30.70;;;18.93;;
13685;SDS011;6915;48.296;8.874;2023-03-01T02:55:59;27.27;;;17.93;;
13685;SDS011;6915;48.296;8.874;2023-03-01T02:58:28;28.80;;;18.60;;
13685;SDS011;6915;48.296;8.874;2023-03-01T03:01:07;26.77;;;18.40;;
13685;SDS011;6915;48.296;8.874;2023-03-01T03:03:35;27.67;;;18.03;;
13685;SDS011;6915;48.296;8.874;2023-03-01T03:06:04;27.47;;;18.13;;
13685;SDS011;6915;48.296;8.874;2023-03-01T03:08:33;28.50;;;18.30;;
13685;SDS011;6915;48.296;8.874;2023-03-01T03:11:02;27.37;;;18.17;;
13685;SDS011;6915;48.296;8.874;2023-03-01T03:13:32;26.23;;;17.80;;
13685;SDS011;6915;48.296;8.874;2023-03-01T03:16:01;25.53;;;18.40;;
13685;SDS011;6915;48.296;8.874;2023-03-01T03:18:32;27.07;;;17.80;;
13685;SDS011;6915;48.296;8.874;2023-03-01T03:21:01;28.47;;;18.50;;
13685;SDS011;6915;48.296;8.874;2023-03-01T03:23:35;29.17;;;18.50;;
13685;SDS011;6915;48.296;8.874;2023-03-01T03:26:04;26.33;;;17.77;;
13685;SDS011;6915;48.296;8.874;2023-03-01T03:28:34;26.53;;;17.90;;
13685;SDS011;6915;48.296;8.874;2023-03-01T03:31:05;27.37;;;18.87;;
13685;SDS011;6915;48.296;8.874;2023-03-01T03:33:35;28.97;;;18.53;;
13685;SDS011;6915;48.296;8.874;2023-03-01T03:36:04;26.93;;;17.63;;
13685;SDS011;6915;48.296;8.874;2023-03-01T03:38:38;25.17;;;17.63;;
13685;SDS011;6915;48.296;8.874;2023-03-01T03:41:07;26.03;;;17.97;;
13685;SDS011;6915;48.296;8.874;2023-03-01T03:43:37;28.60;;;17.60;;
13685;SDS011;6915;48.296;8.874;2023-03-01T03:46:08;27.33;;;17.00;;
13685;SDS011;6915;48.296;8.874;2023-03-01T03:48:39;25.07;;;16.53;;
13685;SDS011;6915;48.296;8.874;2023-03-01T03:51:10;25.37;;;16.70;;
13685;SDS011;6915;48.296;8.874;2023-03-01T03:53:39;27.30;;;18.03;;
13685;SDS011;6915;48.296;8.874;2023-03-01T03:56:10;26.20;;;17.07;;
13685;SDS011;6915;48.296;8.874;2023-03-01T03:58:39;28.40;;;18.10;;
13685;SDS011;6915;48.296;8.874;2023-03-01T04:01:07;27.33;;;18.23;;
13685;SDS011;6915;48.296;8.874;2023-03-01T04:03:36;25.50;;;17.57;;
13685;SDS011;6915;48.296;8.874;2023-03-01T04:12:59;27.97;;;18.63;;
13685;SDS011;6915;48.296;8.874;2023-03-01T04:15:45;26.43;;;17.10;;
13685;SDS011;6915;48.296;8.874;2023-03-01T04:21:46;26.47;;;17.70;;
13685;SDS011;6915;48.296;8.874;2023-03-01T04:24:15;27.33;;;18.20;;
13685;SDS011;6915;48.296;8.874;2023-03-01T04:43:19;29.33;;;18.67;;
13685;SDS011;6915;48.296;8.874;2023-03-01T04:45:49;25.23;;;17.07;;
13685;SDS011;6915;48.296;8.874;2023-03-01T04:48:18;25.47;;;17.30;;
13685;SDS011;6915;48.296;8.874;2023-03-01T04:51:05;30.17;;;18.23;;
13685;SDS011;6915;48.296;8.874;2023-03-01T04:53:39;26.17;;;16.97;;
13685;SDS011;6915;48.296;8.874;2023-03-01T04:56:09;26.00;;;17.27;;
13685;SDS011;6915;48.296;8.874;2023-03-01T04:58:39;25.87;;;18.13;;
13685;SDS011;6915;48.296;8.874;2023-03-01T05:01:08;28.80;;;17.27;;
13685;SDS011;6915;48.296;8.874;2023-03-01T05:03:41;38.03;;;22.10;;
13685;SDS011;6915;48.296;8.874;2023-03-01T05:06:12;33.47;;;19.40;;
13685;SDS011;6915;48.296;8.874;2023-03-01T05:08:43;33.80;;;20.03;;
13685;SDS011;6915;48.296;8.874;2023-03-01T05:11:12;31.77;;;20.03;;
13685;SDS011;6915;48.296;8.874;2023-03-01T05:13:41;29.83;;;18.27;;
13685;SDS011;6915;48.296;8.874;2023-03-01T05:16:10;26.37;;;18.23;;
13685;SDS011;6915;48.296;8.874;2023-03-01T05:18:39;25.40;;;17.63;;
13685;SDS011;6915;48.296;8.874;2023-03-01T05:21:11;26.77;;;17.77;;
13685;SDS011;6915;48.296;8.874;2023-03-01T05:23:43;28.40;;;17.63;;
13685;SDS011;6915;48.296;8.874;2023-03-01T05:26:12;29.70;;;17.33;;
13685;SDS011;6915;48.296;8.874;2023-03-01T05:28:42;28.93;;;17.97;;
13685;SDS011;6915;48.296;8.874;2023-03-01T05:31:11;26.57;;;18.20;;
13685;SDS011;6915;48.296;8.874;2023-03-01T05:33:40;28.70;;;17.87;;
13685;SDS011;6915;48.296;8.874;2023-03-01T05:36:10;26.33;;;17.77;;
13685;SDS011;6915;48.296;8.874;2023-03-01T05:38:39;24.87;;;17.33;;
13685;SDS011;6915;48.296;8.874;2023-03-01T05:41:14;28.63;;;18.97;;
13685;SDS011;6915;48.296;8.874;2023-03-01T05:43:43;27.47;;;18.33;;
13685;SDS011;6915;48.296;8.874;2023-03-01T05:46:12;28.87;;;17.77;;
13685;SDS011;6915;48.296;8.874;2023-03-01T05:48:43;31.27;;;20.03;;
13685;SDS011;6915;48.296;8.874;2023-03-01T05:51:13;28.47;;;18.77;;
13685;SDS011;6915;48.296;8.874;2023-03-01T05:53:42;27.80;;;18.17;;
13685;SDS011;6915;48.296;8.874;2023-03-01T05:56:11;30.30;;;20.03;;
13685;SDS011;6915;48.296;8.874;2023-03-01T05:58:41;32.93;;;21.03;;
13685;SDS011;6915;48.296;8.874;2023-03-01T06:01:11;29.07;;;19.30;;
13685;SDS011;6915;48.296;8.874;2023-03-01T06:03:40;30.70;;;19.50;;
13685;SDS011;6915;48.296;8.874;2023-03-01T06:06:10;30.80;;;19.63;;
13685;SDS011;6915;48.296;8.874;2023-03-01T06:08:39;30.70;;;20.03;;
13685;SDS011;6915;48.296;8.874;2023-03-01T06:11:08;26.50;;;18.23;;
13685;SDS011;6915;48.296;8.874;2023-03-01T06:13:36;29.63;;;18.57;;
13685;SDS011;6915;48.296;8.874;2023-03-01T06:16:07;31.07;;;19.27;;
13685;SDS011;6915;48.296;8.874;2023-03-01T06:18:34;28.03;;;18.67;;
13685;SDS011;6915;48.296;8.874;2023-03-01T06:21:03;31.00;;;21.20;;
13685;SDS011;6915;48.296;8.874;2023-03-01T06:23:35;29.83;;;20.40;;
13685;SDS011;6915;48.296;8.874;2023-03-01T06:26:05;32.80;;;20.37;;
13685;SDS011;6915;48.296;8.874;2023-03-01T06:28:42;28.77;;;19.43;;
13685;SDS011;6915;48.296;8.874;2023-03-01T06:31:13;30.20;;;19.57;;
13685;SDS011;6915;48.296;8.874;2023-03-01T06:33:42;30.47;;;19.20;;
13685;SDS011;6915;48.296;8.874;2023-03-01T06:36:11;29.87;;;19.47;;
13685;SDS011;6915;48.296;8.874;2023-03-01T06:38:43;27.73;;;18.93;;
13685;SDS011;6915;48.296;8.874;2023-03-01T06:41:12;30.60;;;19.70;;
13685;SDS011;6915;48.296;8.874;2023-03-01T06:43:41;30.87;;;20.00;;
13685;SDS011;6915;48.296;8.874;2023-03-01T06:46:10;29.40;;;19.93;;
13685;SDS011;6915;48.296;8.874;2023-03-01T06:48:40;29.90;;;19.53;;
13685;SDS011;6915;48.296;8.874;2023-03-01T06:51:09;28.53;;;20.13;;
13685;SDS011;6915;48.296;8.874;2023-03-01T06:53:37;28.33;;;18.90;;
13685;SDS011;6915;48.296;8.874;2023-03-01T06:56:06;27.57;;;19.00;;
13685;SDS011;6915;48.296;8.874;2023-03-01T06:58:34;27.70;;;19.53;;
13685;SDS011;6915;48.296;8.874;2023-03-01T07:01:05;30.00;;;20.07;;
13685;SDS011;6915;48.296;8.874;2023-03-01T07:03:34;28.97;;;19.63;;
13685;SDS011;6915;48.296;8.874;2023-03-01T07:06:05;26.93;;;17.97;;
13685;SDS011;6915;48.296;8.874;2023-03-01T07:08:34;29.83;;;19.93;;
13685;SDS011;6915;48.296;8.874;2023-03-01T07:11:02;29.63;;;19.47;;
13685;SDS011;6915;48.296;8.874;2023-03-01T07:13:32;26.83;;;18.60;;
13685;SDS011;6915;48.296;8.874;2023-03-01T07:16:00;30.07;;;19.37;;
13685;SDS011;6915;48.296;8.874;2023-03-01T07:18:29;28.17;;;20.17;;
13685;SDS011;6915;48.296;8.874;2023-03-01T07:20:58;31.73;;;20.37;;
13685;SDS011;6915;48.296;8.874;2023-03-01T07:23:31;29.90;;;19.37;;
13685;SDS011;6915;48.296;8.874;2023-03-01T07:26:00;28.93;;;18.70;;
13685;SDS011;6915;48.296;8.874;2023-03-01T07:28:29;29.67;;;19.33;;
13685;SDS011;6915;48.296;8.874;2023-03-01T07:31:01;31.00;;;19.50;;
13685;SDS011;6915;48.296;8.874;2023-03-01T07:33:30;30.63;;;19.30;;
13685;SDS011;6915;48.296;8.874;2023-03-01T07:36:00;29.97;;;19.43;;
13685;SDS011;6915;48.296;8.874;2023-03-01T07:38:31;29.17;;;20.37;;
13685;SDS011;6915;48.296;8.874;2023-03-01T07:41:00;31.83;;;19.83;;
13685;SDS011;6915;48.296;8.874;2023-03-01T07:43:30;28.90;;;19.50;;
13685;SDS011;6915;48.296;8.874;2023-03-01T07:46:00;28.23;;;19.90;;
13685;SDS011;6915;48.296;8.874;2023-03-01T07:48:29;31.87;;;20.07;;
13685;SDS011;6915;48.296;8.874;2023-03-01T07:50:58;29.20;;;19.60;;
13685;SDS011;6915;48.296;8.874;2023-03-01T07:53:27;32.97;;;20.83;;
13685;SDS011;6915;48.296;8.874;2023-03-01T07:56:04;29.37;;;19.10;;
13685;SDS011;6915;48.296;8.874;2023-03-01T07:58:33;31.27;;;20.00;;
13685;SDS011;6915;48.296;8.874;2023-03-01T08:01:03;29.27;;;20.23;;
13685;SDS011;6915;48.296;8.874;2023-03-01T08:03:34;28.60;;;19.30;;
13685;SDS011;6915;48.296;8.874;2023-03-01T08:06:04;31.70;;;19.67;;
13685;SDS011;6915;48.296;8.874;2023-03-01T08:08:34;31.40;;;19.30;;
13685;SDS011;6915;48.296;8.874;2023-03-01T08:11:06;30.07;;;20.30;;
13685;SDS011;6915;48.296;8.874;2023-03-01T08:13:36;27.30;;;18.70;;
13685;SDS011;6915;48.296;8.874;2023-03-01T08:16:06;29.83;;;19.07;;
13685;SDS011;6915;48.296;8.874;2023-03-01T08:18:37;26.90;;;18.43;;
13685;SDS011;6915;48.296;8.874;2023-03-01T08:21:09;28.47;;;18.73;;
13685;SDS011;6915;48.296;8.874;2023-03-01T08:23:40;27.80;;;18.57;;
13685;SDS011;6915;48.296;8.874;2023-03-01T08:26:12;27.73;;;18.87;;
13685;SDS011;6915;48.296;8.874;2023-03-01T08:28:43;27.50;;;19.10;;
13685;SDS011;6915;48.296;8.874;2023-03-01T08:31:16;25.70;;;18.80;;
13685;SDS011;6915;48.296;8.874;2023-03-01T08:33:51;31.63;;;20.23;;
13685;SDS011;6915;48.296;8.874;2023-03-01T08:36:22;29.40;;;19.70;;
13685;SDS011;6915;48.296;8.874;2023-03-01T08:38:52;29.73;;;20.20;;
13685;SDS011;6915;48.296;8.874;2023-03-01T08:41:23;29.00;;;20.17;;
13685;SDS011;6915;48.296;8.874;2023-03-01T08:43:52;26.17;;;17.77;;
13685;SDS011;6915;48.296;8.874;2023-03-01T08:46:24;28.07;;;18.57;;
13685;SDS011;6915;48.296;8.874;2023-03-01T08:48:53;28.83;;;20.33;;
13685;SDS011;6915;48.296;8.874;2023-03-01T08:51:23;29.20;;;18.37;;
13685;SDS011;6915;48.296;8.874;2023-03-01T08:53:52;28.13;;;19.53;;
13685;SDS011;6915;48.296;8.874;2023-03-01T08:56:23;28.77;;;19.47;;
13685;SDS011;6915;48.296;8.874;2023-03-01T08:58:52;28.33;;;18.97;;
13685;SDS011;6915;48.296;8.874;2023-03-01T09:01:21;27.57;;;19.43;;
13685;SDS011;6915;48.296;8.874;2023-03-01T09:03:50;29.50;;;19.77;;
13685;SDS011;6915;48.296;8.874;2023-03-01T09:06:20;29.77;;;20.37;;
13685;SDS011;6915;48.296;8.874;2023-03-01T09:08:49;36.23;;;21.47;;
13685;SDS011;6915;48.296;8.874;2023-03-01T09:11:20;33.53;;;20.83;;
13685;SDS011;6915;48.296;8.874;2023-03-01T09:13:51;30.87;;;21.07;;
13685;SDS011;6915;48.296;8.874;2023-03-01T09:16:20;30.67;;;21.50;;
13685;SDS011;6915;48.296;8.874;2023-03-01T09:18:50;27.27;;;20.90;;
13685;SDS011;6915;48.296;8.874;2023-03-01T09:21:21;30.93;;;20.87;;
13685;SDS011;6915;48.296;8.874;2023-03-01T09:23:50;27.03;;;19.13;;
13685;SDS011;6915;48.296;8.874;2023-03-01T09:26:19;27.87;;;18.33;;
13685;SDS011;6915;48.296;8.874;2023-03-01T09:28:51;30.10;;;19.00;;
13685;SDS011;6915;48.296;8.874;2023-03-01T09:31:22;27.17;;;18.87;;
13685;SDS011;6915;48.296;8.874;2023-03-01T09:33:51;27.30;;;18.13;;
13685;SDS011;6915;48.296;8.874;2023-03-01T09:36:20;28.10;;;19.17;;
13685;SDS011;6915;48.296;8.874;2023-03-01T09:38:51;26.83;;;18.40;;
13685;SDS011;6915;48.296;8.874;2023-03-01T09:41:26;27.67;;;18.33;;
13685;SDS011;6915;48.296;8.874;2023-03-01T09:44:18;28.67;;;19.37;;
13685;SDS011;6915;48.296;8.874;2023-03-01T09:46:54;23.00;;;17.97;;
13685;SDS011;6915;48.296;8.874;2023-03-01T09:49:24;28.53;;;20.07;;
13685;SDS011;6915;48.296;8.874;2023-03-01T09:51:56;26.43;;;19.50;;
13685;SDS011;6915;48.296;8.874;2023-03-01T09:54:26;25.43;;;18.70;;
13685;SDS011;6915;48.296;8.874;2023-03-01T09:57:05;27.20;;;18.97;;
13685;SDS011;6915;48.296;8.874;2023-03-01T09:59:44;27.60;;;18.37;;
13685;SDS011;6915;48.296;8.874;2023-03-01T10:02:26;27.77;;;18.50;;
13685;SDS011;6915;48.296;8.874;2023-03-01T10:05:00;26.30;;;18.50;;
13685;SDS011;6915;48.296;8.874;2023-03-01T10:07:42;25.47;;;18.30;;
13685;SDS011;6915;48.296;8.874;2023-03-01T10:10:16;27.60;;;18.67;;
13685;SDS011;6915;48.296;8.874;2023-03-01T10:12:52;26.87;;;18.20;;
13685;SDS011;6915;48.296;8.874;2023-03-01T10:15:25;26.13;;;18.60;;
13685;SDS011;6915;48.296;8.874;2023-03-01T10:18:00;25.30;;;17.97;;
13685;SDS011;6915;48.296;8.874;2023-03-01T10:20:33;27.23;;;19.70;;
13685;SDS011;6915;48.296;8.874;2023-03-01T10:23:09;26.47;;;18.53;;
13685;SDS011;6915;48.296;8.874;2023-03-01T10:25:50;27.93;;;19.10;;
13685;SDS011;6915;48.296;8.874;2023-03-01T10:28:40;27.00;;;18.63;;
13685;SDS011;6915;48.296;8.874;2023-03-01T10:31:18;25.93;;;18.60;;
13685;SDS011;6915;48.296;8.874;2023-03-01T10:33:52;26.00;;;18.87;;
13685;SDS011;6915;48.296;8.874;2023-03-01T10:36:24;23.50;;;17.00;;
13685;SDS011;6915;48.296;8.874;2023-03-01T10:38:53;26.23;;;18.70;;
13685;SDS011;6915;48.296;8.874;2023-03-01T10:41:23;21.37;;;17.00;;
13685;SDS011;6915;48.296;8.874;2023-03-01T10:43:54;24.33;;;15.67;;
13685;SDS011;6915;48.296;8.874;2023-03-01T10:46:27;19.90;;;15.23;;
13685;SDS011;6915;48.296;8.874;2023-03-01T10:49:12;23.80;;;16.97;;
13685;SDS011;6915;48.296;8.874;2023-03-01T10:51:42;19.17;;;14.97;;
13685;SDS011;6915;48.296;8.874;2023-03-01T10:54:16;20.87;;;15.77;;
13685;SDS011;6915;48.296;8.874;2023-03-01T10:56:47;20.27;;;15.33;;
13685;SDS011;6915;48.296;8.874;2023-03-01T10:59:21;22.53;;;15.53;;
13685;SDS011;6915;48.296;8.874;2023-03-01T11:02:03;22.30;;;16.70;;
13685;SDS011;6915;48.296;8.874;2023-03-01T11:04:46;22.07;;;16.93;;
13685;SDS011;6915;48.296;8.874;2023-03-01T11:07:26;22.47;;;15.53;;
13685;SDS011;6915;48.296;8.874;2023-03-01T11:09:56;21.03;;;16.57;;
13685;SDS011;6915;48.296;8.874;2023-03-01T11:12:25;19.17;;;15.03;;
13685;SDS011;6915;48.296;8.874;2023-03-01T11:14:54;20.53;;;16.23;;
13685;SDS011;6915;48.296;8.874;2023-03-01T11:17:26;19.00;;;14.23;;
13685;SDS011;6915;48.296;8.874;2023-03-01T11:20:01;21.87;;;17.37;;
13685;SDS011;6915;48.296;8.874;2023-03-01T11:22:42;21.47;;;15.20;;
13685;SDS011;6915;48.296;8.874;2023-03-01T11:25:16;17.93;;;14.13;;
13685;SDS011;6915;48.296;8.874;2023-03-01T11:27:46;18.70;;;14.50;;
13685;SDS011;6915;48.296;8.874;2023-03-01T11:30:18;18.63;;;14.40;;
13685;SDS011;6915;48.296;8.874;2023-03-01T11:32:53;19.57;;;14.63;;
13685;SDS011;6915;48.296;8.874;2023-03-01T11:35:32;18.37;;;14.50;;
13685;SDS011;6915;48.296;8.874;2023-03-01T11:38:09;19.77;;;13.93;;
13685;SDS011;6915;48.296;8.874;2023-03-01T11:40:45;18.60;;;15.13;;
13685;SDS011;6915;48.296;8.874;2023-03-01T11:43:20;18.97;;;14.37;;
13685;SDS011;6915;48.296;8.874;2023-03-01T11:45:57;19.57;;;13.00;;
13685;SDS011;6915;48.296;8.874;2023-03-01T11:48:40;19.53;;;14.80;;
13685;SDS011;6915;48.296;8.874;2023-03-01T11:51:19;25.50;;;13.63;;
13685;SDS011;6915;48.296;8.874;2023-03-01T12:30:18;20.37;;;15.90;;
13685;SDS011;6915;48.296;8.874;2023-03-01T12:32:56;20.90;;;16.27;;
13685;SDS011;6915;48.296;8.874;2023-03-01T12:35:42;20.03;;;14.53;;
13685;SDS011;6915;48.296;8.874;2023-03-01T12:38:40;21.27;;;16.40;;
13685;SDS011;6915;48.296;8.874;2023-03-01T12:41:26;21.90;;;15.10;;
13685;SDS011;6915;48.296;8.874;2023-03-01T12:44:05;20.63;;;15.93;;
13685;SDS011;6915;48.296;8.874;2023-03-01T12:47:10;19.23;;;15.17;;
13685;SDS011;6915;48.296;8.874;2023-03-01T12:49:49;18.97;;;15.13;;
13685;SDS011;6915;48.296;8.874;2023-03-01T12:52:22;20.33;;;15.80;;
13685;SDS011;6915;48.296;8.874;2023-03-01T12:54:59;18.17;;;14.07;;
13685;SDS011;6915;48.296;8.874;2023-03-01T12:57:36;18.47;;;14.90;;
13685;SDS011;6915;48.296;8.874;2023-03-01T13:00:17;19.47;;;14.03;;
13685;SDS011;6915;48.296;8.874;2023-03-01T13:02:58;20.27;;;15.80;;
13685;SDS011;6915;48.296;8.874;2023-03-01T13:05:37;19.00;;;14.80;;
13685;SDS011;6915;48.296;8.874;2023-03-01T14:46:41;14.93;;;12.30;;
13685;SDS011;6915;48.296;8.874;2023-03-01T14:49:12;18.37;;;13.33;;
13685;SDS011;6915;48.296;8.874;2023-03-01T14:51:46;18.70;;;13.97;;
13685;SDS011;6915;48.296;8.874;2023-03-01T14:54:21;21.67;;;14.43;;
13685;SDS011;6915;48.296;8.874;2023-03-01T14:56:51;17.40;;;14.70;;
13685;SDS011;6915;48.296;8.874;2023-03-01T14:59:21;17.30;;;14.53;;
13685;SDS011;6915;48.296;8.874;2023-03-01T15:01:53;16.17;;;14.40;;
13685;SDS011;6915;48.296;8.874;2023-03-01T15:04:25;18.70;;;14.40;;
13685;SDS011;6915;48.296;8.874;2023-03-01T15:06:55;17.67;;;13.90;;
13685;SDS011;6915;48.296;8.874;2023-03-01T15:09:36;19.73;;;13.90;;
13685;SDS011;6915;48.296;8.874;2023-03-01T15:15:08;18.87;;;13.57;;
13685;SDS011;6915;48.296;8.874;2023-03-01T15:17:50;16.43;;;13.97;;
13685;SDS011;6915;48.296;8.874;2023-03-01T15:20:22;17.50;;;14.03;;
13685;SDS011;6915;48.296;8.874;2023-03-01T15:22:54;17.07;;;14.40;;
13685;SDS011;6915;48.296;8.874;2023-03-01T15:25:24;15.13;;;12.93;;
13685;SDS011;6915;48.296;8.874;2023-03-01T15:27:55;18.17;;;13.50;;
13685;SDS011;6915;48.296;8.874;2023-03-01T15:30:26;16.60;;;13.63;;
13685;SDS011;6915;48.296;8.874;2023-03-01T15:33:30;15.00;;;13.07;;
13685;SDS011;6915;48.296;8.874;2023-03-01T15:35:59;14.67;;;13.07;;
13685;SDS011;6915;48.296;8.874;2023-03-01T15:38:33;18.73;;;14.07;;
13685;SDS011;6915;48.296;8.874;2023-03-01T15:41:22;15.23;;;12.60;;
13685;SDS011;6915;48.296;8.874;2023-03-01T15:43:53;18.43;;;14.70;;
13685;SDS011;6915;48.296;8.874;2023-03-01T15:46:23;19.37;;;15.67;;
13685;SDS011;6915;48.296;8.874;2023-03-01T15:48:56;17.87;;;14.30;;
13685;SDS011;6915;48.296;8.874;2023-03-01T15:51:29;19.90;;;16.20;;
13685;SDS011;6915;48.296;8.874;2023-03-01T15:53:59;20.47;;;15.20;;
13685;SDS011;6915;48.296;8.874;2023-03-01T15:56:28;18.03;;;14.77;;
13685;SDS011;6915;48.296;8.874;2023-03-01T15:58:57;19.27;;;15.00;;
13685;SDS011;6915;48.296;8.874;2023-03-01T16:01:26;17.80;;;14.50;;
13685;SDS011;6915;48.296;8.874;2023-03-01T16:03:57;27.17;;;18.40;;
13685;SDS011;6915;48.296;8.874;2023-03-01T16:06:27;19.33;;;14.80;;
13685;SDS011;6915;48.296;8.874;2023-03-01T16:08:56;17.00;;;13.73;;
13685;SDS011;6915;48.296;8.874;2023-03-01T16:11:26;18.17;;;13.93;;
13685;SDS011;6915;48.296;8.874;2023-03-01T16:14:05;16.73;;;13.57;;
13685;SDS011;6915;48.296;8.874;2023-03-01T16:16:37;17.67;;;13.57;;
13685;SDS011;6915;48.296;8.874;2023-03-01T16:19:07;20.47;;;13.33;;
13685;SDS011;6915;48.296;8.874;2023-03-01T16:21:38;16.07;;;13.57;;
13685;SDS011;6915;48.296;8.874;2023-03-01T16:24:09;16.90;;;13.03;;
13685;SDS011;6915;48.296;8.874;2023-03-01T16:26:40;17.33;;;13.13;;
13685;SDS011;6915;48.296;8.874;2023-03-01T16:29:10;17.60;;;14.07;;
13685;SDS011;6915;48.296;8.874;2023-03-01T16:31:40;21.53;;;14.30;;
13685;SDS011;6915;48.296;8.874;2023-03-01T16:34:10;21.80;;;15.53;;
13685;SDS011;6915;48.296;8.874;2023-03-01T16:36:39;16.97;;;13.57;;
13685;SDS011;6915;48.296;8.874;2023-03-01T16:39:08;24.23;;;16.17;;
13685;SDS011;6915;48.296;8.874;2023-03-01T16:41:37;19.27;;;15.57;;
13685;SDS011;6915;48.296;8.874;2023-03-01T16:44:05;17.63;;;13.60;;
13685;SDS011;6915;48.296;8.874;2023-03-01T16:46:34;21.53;;;14.97;;
13685;SDS011;6915;48.296;8.874;2023-03-01T16:49:03;18.03;;;15.23;;
13685;SDS011;6915;48.296;8.874;2023-03-01T16:51:33;22.00;;;15.50;;
13685;SDS011;6915;48.296;8.874;2023-03-01T16:54:02;19.90;;;14.70;;
13685;SDS011;6915;48.296;8.874;2023-03-01T16:56:30;19.23;;;14.90;;
13685;SDS011;6915;48.296;8.874;2023-03-01T16:59:02;22.87;;;16.40;;
13685;SDS011;6915;48.296;8.874;2023-03-01T17:01:31;21.10;;;15.00;;
13685;SDS011;6915;48.296;8.874;2023-03-01T17:04:04;21.63;;;15.43;;
13685;SDS011;6915;48.296;8.874;2023-03-01T17:06:37;22.63;;;15.87;;
13685;SDS011;6915;48.296;8.874;2023-03-01T17:09:06;21.93;;;15.90;;
13685;SDS011;6915;48.296;8.874;2023-03-01T17:11:36;22.27;;;15.87;;
13685;SDS011;6915;48.296;8.874;2023-03-01T17:14:05;26.67;;;16.37;;
13685;SDS011;6915;48.296;8.874;2023-03-01T17:16:35;21.47;;;16.50;;
13685;SDS011;6915;48.296;8.874;2023-03-01T17:19:03;22.27;;;16.43;;
13685;SDS011;6915;48.296;8.874;2023-03-01T17:21:34;20.60;;;16.00;;
13685;SDS011;6915;48.296;8.874;2023-03-01T17:24:04;23.80;;;16.33;;
13685;SDS011;6915;48.296;8.874;2023-03-01T17:26:34;22.40;;;16.30;;
13685;SDS011;6915;48.296;8.874;2023-03-01T17:29:03;23.67;;;15.93;;
13685;SDS011;6915;48.296;8.874;2023-03-01T17:31:32;25.57;;;16.23;;
13685;SDS011;6915;48.296;8.874;2023-03-01T17:34:03;25.77;;;16.43;;
13685;SDS011;6915;48.296;8.874;2023-03-01T17:36:43;21.63;;;15.50;;
13685;SDS011;6915;48.296;8.874;2023-03-01T17:39:15;23.53;;;14.93;;
13685;SDS011;6915;48.296;8.874;2023-03-01T17:41:51;22.63;;;15.90;;
13685;SDS011;6915;48.296;8.874;2023-03-01T17:47:08;22.17;;;17.50;;
13685;SDS011;6915;48.296;8.874;2023-03-01T17:49:37;22.80;;;16.97;;
13685;SDS011;6915;48.296;8.874;2023-03-01T17:52:08;22.70;;;16.03;;